Alsen, South Dakota
Current Conditions -  °F | °C
As of 2:35 PM on Saturday 20 Dec 2014 (Local Time) from KYKN Reporting Station
Overcast Overcast  
Wind Chill: 24°   Ceiling: 600
Heat Index: 32°   Visibility: 4mi
Dew Point: 28°   Wind: 9mph
Humidity: 87%   Direction: 160°SSE
Pressure: 30.01"   Gusts: NA
Location:  43.1048°N, 96.7944°W
Report Text: KYKN 202035Z AUTO 16008KT 4SM OVC006 00/M02 A3001 RMK AO1
Loading
Personal Weather Stations






























Interactive Weather Map New forecast layout! Learn more

10-Day Weather Forecast

Advertisements
Track Severe Weather on mobile